Time;durP1;ratioP1;P1;durP2;ratioP2;P2;SDS_P1;SDS_P2;PMS_P1;PMS_P2;Temp;Humidity;BMP_temperature;BMP_pressure;BME280_temperature;BME280_humidity;BME280_pressure;Samples;Min_cycle;Max_cycle;Signal;HPM_P1;HPM_P2
2023/06/29 00:01:27;;;;;;;8.40;4.47;;;;;;;20.08;48.83;100585.19;20767030;28;20286;-80
2023/06/29 00:11:30;;;;;;;12.27;4.90;;;;;;;19.98;49.17;100581.00;20754405;28;20208;-81
2023/06/29 00:21:33;;;;;;;7.65;4.22;;;;;;;20.50;49.33;100582.06;20778871;28;20490;-80
2023/06/29 00:31:36;;;;;;;9.38;4.35;;;;;;;20.66;47.71;100578.97;20783835;28;20216;-80
2023/06/29 00:41:38;;;;;;;8.25;4.28;;;;;;;20.84;47.36;100562.00;20761163;28;20224;-79
2023/06/29 00:51:41;;;;;;;6.63;4.35;;;;;;;20.69;49.05;100561.03;20781257;28;20671;-79
2023/06/29 01:01:45;;;;;;;5.70;4.03;;;;;;;20.60;48.62;100552.78;20760645;28;20585;-79
2023/06/29 01:11:49;;;;;;;6.57;4.32;;;;;;;20.48;48.65;100550.16;20744624;28;20200;-79
2023/06/29 01:22:05;;;;;;;8.68;4.72;;;;;;;20.40;49.20;100546.38;20795413;28;20223;-78
2023/06/29 01:32:10;;;;;;;5.22;4.13;;;;;;;20.49;48.87;100546.09;20760008;28;20219;-79
2023/06/29 01:42:13;;;;;;;6.95;4.00;;;;;;;20.65;48.34;100531.59;20781068;28;20236;-79
2023/06/29 01:52:16;;;;;;;8.38;4.82;;;;;;;20.90;46.64;100520.38;20746886;28;20197;-79
2023/06/29 02:02:18;;;;;;;7.30;4.07;;;;;;;20.51;48.45;100519.97;20771417;28;20274;-79
2023/06/29 02:12:21;;;;;;;7.65;4.50;;;;;;;20.36;48.22;100519.00;20796185;28;20219;-79
2023/06/29 02:22:24;;;;;;;9.98;5.07;;;;;;;20.55;47.41;100515.91;20813344;28;20251;-79
2023/06/29 02:32:27;;;;;;;6.18;4.30;;;;;;;20.69;47.55;100510.38;20770057;28;20220;-79
2023/06/29 02:42:29;;;;;;;7.35;4.60;;;;;;;20.54;47.60;100497.13;20765719;28;20273;-79
2023/06/29 02:52:32;;;;;;;7.82;4.28;;;;;;;20.67;48.36;100494.81;20807649;28;20262;-79
2023/06/29 03:02:35;;;;;;;8.23;4.07;;;;;;;20.76;48.31;100486.75;20773523;28;20565;-80
2023/06/29 03:12:38;;;;;;;7.88;4.35;;;;;;;20.50;48.78;100479.13;20777011;28;20226;-80
2023/06/29 03:22:40;;;;;;;8.18;4.70;;;;;;;20.27;48.19;100487.03;20783531;28;20255;-80
2023/06/29 03:32:43;;;;;;;5.93;4.30;;;;;;;20.82;48.34;100479.44;20791139;28;20278;-80
2023/06/29 03:42:46;;;;;;;7.68;4.85;;;;;;;21.03;47.60;100473.09;20771605;28;20220;-79
2023/06/29 03:52:48;;;;;;;9.15;4.80;;;;;;;20.68;48.05;100477.28;20785947;28;20811;-80
2023/06/29 04:02:51;;;;;;;9.68;4.72;;;;;;;21.30;46.44;100465.91;20789224;28;20229;-80
2023/06/29 04:12:53;;;;;;;8.13;4.53;;;;;;;20.95;48.21;100454.19;20779644;28;20579;-79
2023/06/29 04:22:56;;;;;;;7.63;4.85;;;;;;;20.77;46.58;100441.81;20790721;28;20259;-79
2023/06/29 04:33:09;;;;;;;8.77;4.80;;;;;;;20.72;47.47;100446.69;20781580;28;20243;-79
2023/06/29 04:43:13;;;;;;;8.07;4.80;;;;;;;20.88;47.26;100439.84;20749490;28;20228;-79
2023/06/29 04:53:16;;;;;;;12.07;5.38;;;;;;;21.17;47.18;100438.03;20766924;28;20200;-79
2023/06/29 05:03:18;;;;;;;8.45;4.88;;;;;;;21.27;47.35;100438.13;20801002;28;20220;-79
2023/06/29 05:13:21;;;;;;;6.57;4.57;;;;;;;20.83;48.91;100435.31;20793730;28;20205;-79
2023/06/29 05:23:23;;;;;;;7.35;4.18;;;;;;;21.09;48.91;100425.69;20782499;28;20282;-79
2023/06/29 05:33:26;;;;;;;10.07;5.53;;;;;;;21.42;47.10;100411.22;20803726;28;20633;-79
2023/06/29 05:43:29;;;;;;;8.32;5.40;;;;;;;21.04;48.49;100408.91;20776916;28;20225;-78
2023/06/29 05:53:32;;;;;;;7.20;5.15;;;;;;;20.87;48.33;100407.56;20763520;28;20278;-79
2023/06/29 06:03:35;;;;;;;10.63;4.57;;;;;;;20.90;46.75;100411.69;20736623;28;20286;-79
2023/06/29 06:13:38;;;;;;;9.25;4.55;;;;;;;20.65;48.29;100412.28;20772882;28;20259;-79
2023/06/29 06:23:40;;;;;;;7.28;4.75;;;;;;;21.57;47.60;100422.69;20803849;28;20278;-78
2023/06/29 06:33:45;;;;;;;9.25;4.70;;;;;;;21.65;47.99;100407.22;20791788;28;20224;-79
2023/06/29 06:43:47;;;;;;;8.13;4.07;;;;;;;21.97;48.36;100407.34;20784856;28;20270;-79
2023/06/29 06:53:50;;;;;;;5.43;3.40;;;;;;;22.22;45.70;100407.38;20804278;28;20200;-79
2023/06/29 07:03:53;;;;;;;5.80;3.08;;;;;;;22.32;43.98;100413.16;20811060;28;20286;-78
2023/06/29 07:13:55;;;;;;;11.77;5.25;;;;;;;22.07;44.63;100418.03;20768231;28;20276;-80
2023/06/29 07:23:58;;;;;;;5.28;3.53;;;;;;;22.39;44.47;100412.34;20771168;28;20228;-79
2023/06/29 07:34:05;;;;;;;5.10;3.40;;;;;;;21.73;45.08;100406.00;20768084;28;20235;-79
2023/06/29 07:44:08;;;;;;;6.78;4.95;;;;;;;22.37;44.40;100394.69;20798732;28;20703;-79
2023/06/29 07:54:12;;;;;;;7.25;3.92;;;;;;;22.47;44.31;100396.81;20774521;28;20262;-79
2023/06/29 08:04:15;;;;;;;7.15;3.40;;;;;;;22.24;44.32;100404.94;20784748;28;20247;-80
2023/06/29 08:14:20;;;;;;;6.70;3.53;;;;;;;22.08;45.00;100394.66;20800760;28;20491;-79
2023/06/29 08:24:23;;;;;;;4.00;3.22;;;;;;;22.37;44.42;100394.69;20760295;28;20241;-79
2023/06/29 08:34:25;;;;;;;5.00;3.20;;;;;;;23.20;43.06;100394.28;20783700;28;20217;-79
2023/06/29 08:44:28;;;;;;;8.80;5.20;;;;;;;23.37;43.51;100387.69;20799199;28;20299;-80
2023/06/29 08:54:32;;;;;;;7.68;3.53;;;;;;;23.52;43.99;100385.53;20783951;28;20290;-80
2023/06/29 09:04:36;;;;;;;7.45;3.50;;;;;;;23.08;43.49;100389.81;20776809;28;20649;-82
2023/06/29 09:14:44;;;;;;;5.70;2.90;;;;;;;22.75;42.29;100378.75;20789719;28;20196;-80
2023/06/29 09:24:55;;;;;;;3.38;2.35;;;;;;;23.61;42.51;100368.72;20779124;28;20212;-78
2023/06/29 09:35:09;;;;;;;7.63;3.05;;;;;;;23.99;41.00;100366.88;20769598;28;20286;-78
2023/06/29 09:45:12;;;;;;;8.55;2.83;;;;;;;24.56;39.87;100363.56;20761845;28;20228;-81
2023/06/29 09:55:15;;;;;;;5.47;2.72;;;;;;;24.06;40.84;100360.22;20785201;28;20236;-82
2023/06/29 10:05:20;;;;;;;7.95;3.60;;;;;;;23.62;40.83;100358.88;20757544;28;20282;-82
2023/06/29 10:15:25;;;;;;;7.22;3.60;;;;;;;24.17;41.36;100349.50;20755671;28;20249;-80
2023/06/29 10:25:28;;;;;;;6.82;4.25;;;;;;;23.83;41.57;100350.13;20767286;28;20221;-79
2023/06/29 10:35:32;;;;;;;8.68;4.35;;;;;;;23.53;42.54;100342.06;20755975;28;20786;-78
2023/06/29 10:45:37;;;;;;;9.38;5.10;;;;;;;23.68;42.58;100339.94;20770070;28;20634;-79
2023/06/29 10:55:42;;;;;;;8.88;5.13;;;;;;;23.71;41.42;100344.88;20764707;28;20220;-81
2023/06/29 11:05:53;;;;;;;9.15;5.70;;;;;;;23.13;41.87;100331.13;20796487;28;20700;-78
2023/06/29 11:15:56;;;;;;;8.32;5.55;;;;;;;23.35;41.75;100331.88;20806083;28;20234;-78
2023/06/29 11:26:00;;;;;;;8.93;5.53;;;;;;;24.03;40.54;100309.34;20758272;28;20228;-82
2023/06/29 11:36:03;;;;;;;8.73;6.60;;;;;;;24.35;39.67;100307.06;20779807;28;20279;-82
2023/06/29 11:46:05;;;;;;;10.23;5.28;;;;;;;25.24;36.89;100297.50;20790688;28;20229;-83
2023/06/29 11:56:42;;;;;;;7.50;5.43;;;;;;;25.22;36.91;100288.47;20792708;28;20655;-82
2023/06/29 12:06:58;;;;;;;9.05;6.10;;;;;;;24.42;38.46;100280.28;20825096;28;20228;-79
2023/06/29 12:17:01;;;;;;;12.20;5.63;;;;;;;24.69;37.88;100271.81;20776398;28;20200;-83
2023/06/29 12:27:07;;;;;;;8.00;5.47;;;;;;;24.96;37.56;100270.66;20791712;28;20246;-79
2023/06/29 12:37:09;;;;;;;12.38;6.60;;;;;;;24.79;37.87;100277.47;20821617;28;20287;-82
2023/06/29 12:47:12;;;;;;;9.60;7.43;;;;;;;23.98;40.53;100276.13;20821356;28;20204;-83
2023/06/29 12:57:15;;;;;;;14.43;9.32;;;;;;;23.60;44.78;100288.69;20788328;28;20560;-77
2023/06/29 13:07:18;;;;;;;14.55;10.90;;;;;;;22.58;47.62;100287.81;20804050;28;20552;-84
2023/06/29 13:17:20;;;;;;;13.80;9.90;;;;;;;22.73;48.69;100278.75;20802955;28;20208;-84
2023/06/29 13:27:23;;;;;;;22.27;12.15;;;;;;;23.75;46.38;100273.00;20827098;28;20651;-78
2023/06/29 13:37:26;;;;;;;18.08;11.85;;;;;;;23.83;46.62;100271.72;20762897;28;20278;-79
2023/06/29 13:47:28;;;;;;;16.65;11.73;;;;;;;23.87;46.86;100272.50;20817401;28;20200;-80
2023/06/29 13:57:31;;;;;;;17.40;12.38;;;;;;;23.52;46.88;100267.78;20816809;28;20243;-82
2023/06/29 14:07:35;;;;;;;18.63;12.15;;;;;;;23.65;45.88;100248.84;20788789;28;20281;-82
2023/06/29 14:17:37;;;;;;;18.13;12.27;;;;;;;24.37;44.02;100243.34;20785818;28;20204;-78
2023/06/29 14:27:40;;;;;;;21.88;13.48;;;;;;;23.76;44.23;100243.03;20811507;28;20196;-82
2023/06/29 14:37:43;;;;;;;14.38;11.48;;;;;;;24.97;41.48;100231.19;20795732;28;20278;-83
2023/06/29 14:47:45;;;;;;;22.27;15.85;;;;;;;24.03;41.88;100221.03;20796553;28;20262;-82
2023/06/29 14:57:50;;;;;;;25.63;16.25;;;;;;;24.08;42.06;100211.13;20763583;28;20209;-77
2023/06/29 15:07:52;;;;;;;19.58;15.52;;;;;;;24.11;42.73;100219.78;20757640;28;20282;-83
2023/06/29 15:17:56;;;;;;;23.80;17.80;;;;;;;24.94;41.08;100209.81;20787727;28;20274;-79
2023/06/29 15:28:01;;;;;;;22.13;17.88;;;;;;;24.67;41.65;100197.44;20791118;28;20223;-78
2023/06/29 15:38:04;;;;;;;25.55;18.45;;;;;;;24.62;42.58;100195.00;20820680;28;20216;-78
2023/06/29 15:48:08;;;;;;;23.05;17.98;;;;;;;24.61;42.56;100184.72;20802959;28;20200;-82
2023/06/29 15:58:11;;;;;;;23.83;19.25;;;;;;;24.20;42.67;100182.72;20796386;28;20213;-78
2023/06/29 16:08:14;;;;;;;23.98;16.98;;;;;;;24.55;42.18;100174.91;20774771;28;20220;-79
2023/06/29 16:18:16;;;;;;;22.45;16.13;;;;;;;24.82;41.05;100167.22;20781449;28;20224;-78
2023/06/29 16:28:19;;;;;;;19.45;14.98;;;;;;;24.12;42.93;100158.16;20765838;28;20200;-78
2023/06/29 16:38:21;;;;;;;22.33;15.48;;;;;;;23.80;42.78;100163.34;20767251;28;20216;-78
2023/06/29 16:48:24;;;;;;;28.92;22.20;;;;;;;23.98;43.73;100152.50;20782489;28;20557;-79
2023/06/29 16:58:27;;;;;;;22.30;16.67;;;;;;;23.30;46.50;100166.59;20775627;28;20273;-86
2023/06/29 17:08:29;;;;;;;24.95;16.15;;;;;;;23.27;45.83;100164.56;20771152;28;20286;-78
2023/06/29 17:18:34;;;;;;;21.75;16.10;;;;;;;24.33;43.36;100150.53;20777559;28;20224;-78
2023/06/29 17:28:38;;;;;;;20.90;15.88;;;;;;;23.57;39.84;100160.28;20796644;28;20663;-78
2023/06/29 17:38:41;;;;;;;22.17;16.25;;;;;;;23.65;39.78;100162.66;20796342;28;20309;-78
2023/06/29 17:48:44;;;;;;;20.05;15.95;;;;;;;24.06;39.09;100171.31;20770441;28;20258;-77
2023/06/29 17:58:46;;;;;;;22.15;16.67;;;;;;;23.60;38.97;100186.09;20766560;28;20294;-77
2023/06/29 18:08:49;;;;;;;23.27;16.48;;;;;;;23.79;38.65;100173.22;20758999;28;20232;-82
2023/06/29 18:18:52;;;;;;;23.65;18.25;;;;;;;23.87;37.52;100167.00;20773268;28;20241;-85
2023/06/29 18:28:54;;;;;;;26.23;18.55;;;;;;;23.26;38.50;100173.56;20801199;28;20494;-84
2023/06/29 18:38:58;;;;;;;29.00;19.05;;;;;;;23.58;38.68;100173.41;20778795;28;20228;-84
2023/06/29 18:49:01;;;;;;;31.10;22.02;;;;;;;23.35;40.66;100169.03;20745258;28;20227;-85
2023/06/29 18:59:03;;;;;;;29.27;21.83;;;;;;;22.96;42.89;100172.13;20737684;28;20594;-85
2023/06/29 19:09:06;;;;;;;31.70;22.77;;;;;;;23.12;43.49;100163.81;20761969;28;20274;-86
2023/06/29 19:19:09;;;;;;;31.55;22.80;;;;;;;23.13;43.78;100158.91;20732198;28;20228;-78
2023/06/29 19:29:12;;;;;;;31.88;23.35;;;;;;;23.06;44.45;100176.19;20751987;28;20205;-83
2023/06/29 19:39:14;;;;;;;31.48;24.98;;;;;;;22.35;46.41;100190.72;21303182;23;20231;-81
2023/06/29 19:49:17;;;;;;;33.60;23.60;;;;;;;22.77;45.80;100193.50;20851096;28;20357;-82
2023/06/29 19:59:19;;;;;;;37.03;25.35;;;;;;;22.33;46.95;100214.09;20825213;28;20314;-81
2023/06/29 20:09:22;;;;;;;31.88;24.23;;;;;;;22.35;46.03;100228.00;20820864;28;20287;-83
2023/06/29 20:19:25;;;;;;;31.75;23.55;;;;;;;22.83;45.59;100226.28;20847155;28;20262;-81
2023/06/29 20:29:27;;;;;;;35.25;24.00;;;;;;;22.70;45.75;100233.69;20846449;28;20234;-82
2023/06/29 20:39:30;;;;;;;32.67;23.80;;;;;;;22.52;46.22;100224.31;20819777;28;20529;-79
2023/06/29 20:49:33;;;;;;;35.67;25.10;;;;;;;22.09;47.04;100230.06;20765084;28;20246;-82
2023/06/29 20:59:35;;;;;;;33.28;24.83;;;;;;;22.01;47.21;100219.84;20828650;28;20310;-81
2023/06/29 21:09:38;;;;;;;30.50;23.35;;;;;;;22.01;47.28;100217.00;20807395;28;20258;-80
2023/06/29 21:19:41;;;;;;;33.92;24.52;;;;;;;20.73;52.79;100236.69;20782557;28;20305;-80
2023/06/29 21:29:46;;;;;;;29.27;21.38;;;;;;;20.93;53.22;100242.91;20803202;28;20203;-84
2023/06/29 21:39:48;;;;;;;21.77;16.50;;;;;;;20.23;54.03;100257.59;20813217;28;20290;-80
2023/06/29 21:49:51;;;;;;;20.63;14.93;;;;;;;20.72;52.86;100245.69;20747545;28;20247;-81
2023/06/29 21:59:54;;;;;;;22.08;15.07;;;;;;;19.90;56.63;100235.66;20802583;28;20259;-81
2023/06/29 22:09:56;;;;;;;23.23;15.90;;;;;;;19.82;57.64;100233.97;20758954;28;20232;-80
2023/06/29 22:20:28;;;;;;;22.42;17.58;;;;;;;19.87;58.80;100234.44;20798082;28;20251;-84
2023/06/29 22:30:30;;;;;;;17.60;11.95;;;;;;;20.26;57.10;100228.22;20781840;28;20561;-80
2023/06/29 22:40:34;;;;;;;11.02;9.00;;;;;;;19.52;59.61;100234.06;20804996;28;20286;-80
2023/06/29 22:50:38;;;;;;;9.75;7.93;;;;;;;20.18;56.66;100240.81;20789301;28;20605;-80
2023/06/29 23:00:40;;;;;;;8.63;5.45;;;;;;;19.58;56.52;100243.94;20798417;28;20290;-79
2023/06/29 23:10:46;;;;;;;4.82;3.20;;;;;;;18.93;57.98;100252.94;20793257;28;20581;-84
2023/06/29 23:20:49;;;;;;;3.83;2.55;;;;;;;19.99;54.87;100251.28;20752699;28;20309;-81
2023/06/29 23:30:51;;;;;;;3.20;2.45;;;;;;;19.31;56.75;100269.75;20785353;28;20232;-81
2023/06/29 23:40:54;;;;;;;4.05;1.77;;;;;;;19.54;55.71;100261.03;20749061;28;20232;-80
2023/06/29 23:50:56;;;;;;;3.25;1.58;;;;;;;19.10;56.81;100258.03;20748172;28;20800;-80
